createdAt,value
2017-12-24T00:00:08.309Z,13.70
2017-12-24T00:02:01.571Z,13.40
2017-12-24T00:03:01.502Z,12.80
2017-12-24T00:04:54.786Z,12.90
2017-12-24T00:05:54.694Z,13.80
2017-12-24T00:07:47.983Z,13.20
2017-12-24T00:08:47.876Z,13.20
2017-12-24T00:10:41.141Z,14.10
2017-12-24T00:11:41.072Z,13.10
2017-12-24T00:13:34.394Z,13.60
2017-12-24T00:14:34.308Z,13.60
2017-12-24T00:16:27.562Z,13.80
2017-12-24T00:17:27.496Z,14.70
2017-12-24T00:19:20.775Z,13.80
2017-12-24T00:20:20.684Z,15.20
2017-12-24T00:22:13.948Z,14.70
2017-12-24T00:23:13.879Z,14.90
2017-12-24T00:25:07.161Z,14.50
2017-12-24T00:26:07.076Z,14.70
2017-12-24T00:28:00.396Z,15.40
2017-12-24T00:29:00.311Z,16.20
2017-12-24T00:30:53.559Z,15.20
2017-12-24T00:31:53.496Z,15.00
2017-12-24T00:33:46.770Z,15.50
2017-12-24T00:34:46.683Z,15.90
2017-12-24T00:36:39.943Z,14.50
2017-12-24T00:37:39.878Z,15.20
2017-12-24T00:39:33.160Z,14.70
2017-12-24T00:40:33.072Z,15.40
2017-12-24T00:42:26.378Z,15.70
2017-12-24T00:43:26.308Z,15.30
2017-12-24T00:45:19.591Z,16.40
2017-12-24T00:46:19.504Z,16.20
2017-12-24T00:48:12.888Z,16.00
2017-12-24T00:49:12.694Z,14.80
2017-12-24T00:51:06.063Z,16.60
2017-12-24T00:52:05.886Z,16.70
2017-12-24T00:53:59.165Z,15.90
2017-12-24T00:54:59.078Z,16.70
2017-12-24T00:56:52.376Z,15.90
2017-12-24T00:57:52.307Z,16.20
2017-12-24T00:59:45.578Z,16.00
2017-12-24T01:00:45.493Z,16.20
2017-12-24T01:02:38.752Z,16.00
2017-12-24T01:03:38.683Z,16.80
2017-12-24T01:05:31.964Z,16.40
2017-12-24T01:06:31.910Z,16.50
2017-12-24T01:08:25.157Z,17.20
2017-12-24T01:09:25.071Z,17.00
2017-12-24T01:11:18.376Z,17.40
2017-12-24T01:12:18.305Z,16.90
2017-12-24T01:14:11.587Z,17.80
2017-12-24T01:15:11.503Z,17.40
2017-12-24T01:17:04.762Z,17.20
2017-12-24T01:18:04.693Z,18.20
2017-12-24T01:19:57.961Z,16.10
2017-12-24T01:20:57.879Z,16.70
2017-12-24T01:22:51.134Z,17.00
2017-12-24T01:23:51.068Z,17.30
2017-12-24T01:25:44.396Z,19.10
2017-12-24T01:26:44.308Z,18.50
2017-12-24T01:28:37.590Z,18.40
2017-12-24T01:29:37.501Z,19.10
2017-12-24T01:31:30.751Z,18.90
2017-12-24T01:32:30.688Z,18.00
2017-12-24T01:34:23.971Z,19.40
2017-12-24T01:35:23.872Z,19.60
2017-12-24T01:37:17.242Z,18.90
2017-12-24T01:38:17.068Z,18.00
2017-12-24T01:40:10.402Z,18.40
2017-12-24T01:41:10.310Z,18.50
2017-12-24T01:43:03.572Z,19.30
2017-12-24T01:44:03.504Z,19.00
2017-12-24T01:45:56.783Z,18.40
2017-12-24T01:46:56.695Z,18.10
2017-12-24T01:48:49.974Z,19.10
2017-12-24T01:49:49.888Z,18.90
2017-12-24T01:51:43.149Z,18.20
2017-12-24T01:52:43.082Z,18.30
2017-12-24T01:54:36.397Z,17.50
2017-12-24T01:55:36.311Z,18.30
2017-12-24T01:57:29.568Z,18.00
2017-12-24T01:58:29.508Z,18.00
2017-12-24T02:00:22.782Z,17.20
2017-12-24T02:01:22.696Z,18.00
2017-12-24T02:03:16.064Z,17.20
2017-12-24T02:04:15.891Z,17.90
2017-12-24T02:06:09.174Z,18.20
2017-12-24T02:07:09.084Z,17.50
2017-12-24T02:09:02.396Z,18.70
2017-12-24T02:10:02.312Z,17.90
2017-12-24T02:11:55.571Z,17.30
2017-12-24T02:12:55.509Z,17.30
2017-12-24T02:14:48.892Z,17.60
2017-12-24T02:15:48.695Z,18.30
2017-12-24T02:17:41.956Z,17.10
2017-12-24T02:18:41.889Z,16.70
2017-12-24T02:20:35.167Z,18.70
2017-12-24T02:21:35.084Z,18.50
2017-12-24T02:23:28.371Z,19.40
2017-12-24T02:24:28.309Z,18.30
2017-12-24T02:26:21.697Z,17.20
2017-12-24T02:27:21.501Z,17.30
2017-12-24T02:29:14.777Z,18.90
2017-12-24T02:30:14.687Z,18.30
2017-12-24T02:32:07.948Z,18.20
2017-12-24T02:33:07.879Z,18.30
2017-12-24T02:35:01.267Z,17.90
2017-12-24T02:36:01.074Z,18.00
2017-12-24T02:37:54.380Z,18.40
2017-12-24T02:38:54.311Z,18.90
2017-12-24T02:40:47.700Z,18.30
2017-12-24T02:41:47.504Z,18.20
2017-12-24T02:43:40.763Z,18.80
2017-12-24T02:44:40.696Z,18.90
2017-12-24T02:46:34.082Z,17.30
2017-12-24T02:47:33.889Z,17.70
2017-12-24T02:49:27.277Z,19.30
2017-12-24T02:50:27.072Z,18.90
2017-12-24T02:52:20.380Z,19.20
2017-12-24T02:53:20.312Z,18.30
2017-12-24T02:55:13.595Z,19.00
2017-12-24T02:56:13.516Z,19.50
2017-12-24T02:58:06.765Z,18.70
2017-12-24T02:59:06.698Z,18.70
2017-12-24T03:01:00.087Z,19.00
2017-12-24T03:01:59.893Z,18.50
2017-12-24T03:03:53.154Z,17.90
2017-12-24T03:04:53.087Z,18.20
2017-12-24T03:06:46.400Z,19.50
2017-12-24T03:07:46.314Z,18.00
2017-12-24T03:09:39.583Z,17.60
2017-12-24T03:10:39.498Z,18.50
2017-12-24T03:12:32.758Z,18.60
2017-12-24T03:13:32.691Z,17.40
2017-12-24T03:15:25.968Z,17.90
2017-12-24T03:16:25.883Z,18.40
2017-12-24T03:18:19.144Z,18.40
2017-12-24T03:19:19.077Z,18.80
2017-12-24T03:21:12.402Z,18.00
2017-12-24T03:22:12.308Z,18.40
2017-12-24T03:24:05.679Z,18.80
2017-12-24T03:25:05.503Z,18.40
2017-12-24T03:26:58.891Z,17.00
2017-12-24T03:27:58.702Z,17.90
2017-12-24T03:29:51.965Z,18.90
2017-12-24T03:30:51.882Z,18.00
2017-12-24T03:32:45.143Z,17.80
2017-12-24T03:33:45.075Z,18.00
2017-12-24T03:35:38.396Z,17.90
2017-12-24T03:36:38.309Z,17.90
2017-12-24T03:38:31.678Z,18.20
2017-12-24T03:39:31.507Z,17.70
2017-12-24T03:41:24.784Z,16.60
2017-12-24T03:42:24.699Z,17.30
2017-12-24T03:44:17.956Z,18.40
2017-12-24T03:45:17.889Z,18.00
2017-12-24T03:47:11.168Z,16.80
2017-12-24T03:48:11.084Z,17.70
2017-12-24T03:50:04.401Z,17.90
2017-12-24T03:51:04.312Z,17.90
2017-12-24T03:52:57.573Z,17.60
2017-12-24T03:53:57.506Z,17.80
2017-12-24T03:55:50.941Z,18.00
2017-12-24T03:56:50.699Z,17.70
2017-12-24T03:58:43.959Z,17.30
2017-12-24T03:59:43.891Z,17.20
2017-12-24T04:01:37.174Z,17.30
2017-12-24T04:02:37.089Z,17.60
2017-12-24T04:04:30.378Z,18.00
2017-12-24T04:05:30.307Z,18.40
2017-12-24T04:07:23.588Z,17.30
2017-12-24T04:08:23.501Z,18.20
2017-12-24T04:10:16.782Z,17.30
2017-12-24T04:11:16.694Z,17.50
2017-12-24T04:13:09.955Z,17.00
2017-12-24T04:14:09.888Z,17.20
2017-12-24T04:16:03.168Z,16.60
2017-12-24T04:17:03.083Z,16.20
2017-12-24T04:18:56.376Z,16.50
2017-12-24T04:19:56.311Z,16.40
2017-12-24T04:21:49.590Z,15.70
2017-12-24T04:22:49.504Z,16.30
2017-12-24T04:24:42.769Z,16.40
2017-12-24T04:25:42.699Z,15.90
2017-12-24T04:27:35.979Z,15.30
2017-12-24T04:28:35.893Z,14.40
2017-12-24T04:30:29.177Z,14.60
2017-12-24T04:31:29.087Z,14.50
2017-12-24T04:33:22.376Z,14.90
2017-12-24T04:34:22.308Z,14.60
2017-12-24T04:36:15.587Z,15.10
2017-12-24T04:37:15.501Z,14.60
2017-12-24T04:39:08.764Z,15.20
2017-12-24T04:40:08.697Z,14.50
2017-12-24T04:42:01.975Z,15.00
2017-12-24T04:43:01.888Z,14.60
2017-12-24T04:44:55.150Z,15.00
2017-12-24T04:45:55.082Z,14.60
2017-12-24T04:47:48.396Z,15.40
2017-12-24T04:48:48.308Z,14.40
2017-12-24T04:50:41.588Z,14.00
2017-12-24T04:51:41.502Z,14.50
2017-12-24T04:53:34.763Z,15.00
2017-12-24T04:54:34.696Z,14.40
2017-12-24T04:56:27.978Z,14.50
2017-12-24T04:57:27.889Z,14.10
2017-12-24T04:59:21.259Z,14.30
2017-12-24T05:00:21.072Z,14.40
2017-12-24T05:02:14.351Z,14.20
2017-12-24T05:03:14.266Z,15.00
2017-12-24T05:05:07.525Z,14.90
2017-12-24T05:06:07.459Z,15.10
2017-12-24T05:08:00.733Z,14.40
2017-12-24T05:09:00.656Z,14.80
2017-12-24T05:10:53.932Z,14.70
2017-12-24T05:11:53.844Z,14.80
2017-12-24T05:13:47.214Z,14.40
2017-12-24T05:14:47.038Z,15.10
2017-12-24T05:16:40.396Z,15.50
2017-12-24T05:17:40.307Z,14.90
2017-12-24T05:19:33.678Z,15.50
2017-12-24T05:20:33.500Z,14.30
2017-12-24T05:22:26.782Z,14.80
2017-12-24T05:23:26.693Z,14.90
2017-12-24T05:25:19.954Z,15.20
2017-12-24T05:26:19.886Z,15.20
2017-12-24T05:28:13.273Z,15.70
2017-12-24T05:29:13.079Z,16.20
2017-12-24T05:31:06.395Z,15.60
2017-12-24T05:32:06.309Z,15.50
2017-12-24T05:33:59.577Z,16.00
2017-12-24T05:34:59.499Z,15.50
2017-12-24T05:36:52.780Z,16.70
2017-12-24T05:37:52.694Z,16.40
2017-12-24T05:39:46.065Z,15.80
2017-12-24T05:40:45.880Z,15.70
2017-12-24T05:42:39.164Z,16.40
2017-12-24T05:43:39.077Z,16.20
2017-12-24T05:45:32.377Z,15.50
2017-12-24T05:46:32.308Z,16.90
2017-12-24T05:48:25.592Z,15.80
2017-12-24T05:49:25.503Z,16.10
2017-12-24T05:51:18.891Z,16.00
2017-12-24T05:52:18.695Z,16.20
2017-12-24T05:54:11.959Z,15.00
2017-12-24T05:55:11.891Z,15.70
2017-12-24T05:57:05.171Z,15.00
2017-12-24T05:58:05.081Z,15.20
2017-12-24T05:59:58.378Z,15.30
2017-12-24T06:00:58.313Z,14.90
2017-12-24T06:02:51.590Z,15.40
2017-12-24T06:03:51.503Z,15.70
2017-12-24T06:05:44.873Z,16.00
2017-12-24T06:06:44.697Z,15.50
2017-12-24T06:08:37.980Z,14.90
2017-12-24T06:09:37.894Z,15.30
2017-12-24T06:11:31.173Z,15.20
2017-12-24T06:12:31.088Z,15.10
2017-12-24T06:14:24.379Z,15.50
2017-12-24T06:15:24.309Z,15.70
2017-12-24T06:17:17.595Z,15.00
2017-12-24T06:18:17.506Z,15.10
2017-12-24T06:20:10.754Z,15.10
2017-12-24T06:21:10.686Z,15.70
2017-12-24T06:23:03.976Z,14.60
2017-12-24T06:24:03.880Z,14.40
2017-12-24T06:25:57.146Z,14.80
2017-12-24T06:26:57.074Z,14.90
2017-12-24T06:28:50.396Z,15.10
2017-12-24T06:29:50.311Z,14.70
2017-12-24T06:31:43.589Z,15.10
2017-12-24T06:32:43.504Z,15.40
2017-12-24T06:34:36.766Z,16.10
2017-12-24T06:35:36.700Z,15.00
2017-12-24T06:37:29.978Z,15.70
2017-12-24T06:38:29.891Z,14.90
2017-12-24T06:40:23.153Z,16.20
2017-12-24T06:41:23.141Z,16.00
2017-12-24T06:43:16.395Z,16.50
2017-12-24T06:44:16.308Z,15.50
2017-12-24T06:46:09.677Z,16.20
2017-12-24T06:47:09.503Z,16.40
2017-12-24T06:49:02.888Z,17.00
2017-12-24T06:50:02.693Z,16.30
2017-12-24T06:51:55.974Z,16.80
2017-12-24T06:52:55.889Z,15.30
2017-12-24T06:54:49.156Z,16.30
2017-12-24T06:55:49.086Z,16.00
2017-12-24T06:57:42.397Z,14.90
2017-12-24T06:58:42.309Z,15.10
2017-12-24T07:00:35.570Z,14.80
2017-12-24T07:01:35.504Z,14.60
2017-12-24T07:03:28.889Z,14.90
2017-12-24T07:04:28.695Z,15.00
2017-12-24T07:06:21.959Z,14.80
2017-12-24T07:07:21.891Z,14.80
2017-12-24T07:09:15.174Z,13.40
2017-12-24T07:10:15.089Z,15.10
2017-12-24T07:12:08.394Z,14.60
2017-12-24T07:13:08.307Z,13.40
2017-12-24T07:15:01.569Z,14.70
2017-12-24T07:16:01.499Z,14.90
2017-12-24T07:17:54.774Z,14.80
2017-12-24T07:18:54.691Z,13.90
2017-12-24T07:20:48.065Z,13.70
2017-12-24T07:21:47.890Z,13.40
2017-12-24T07:23:41.275Z,13.00
2017-12-24T07:24:41.082Z,13.50
2017-12-24T07:26:34.376Z,14.30
2017-12-24T07:27:34.308Z,14.30
2017-12-24T07:29:27.590Z,13.70
2017-12-24T07:30:27.501Z,14.00
2017-12-24T07:32:20.782Z,13.80
2017-12-24T07:33:20.696Z,13.40
2017-12-24T07:35:13.958Z,13.80
2017-12-24T07:36:13.890Z,13.20
2017-12-24T07:38:07.278Z,13.80
2017-12-24T07:39:07.086Z,14.10
2017-12-24T07:41:00.452Z,14.00
2017-12-24T07:42:00.308Z,13.80
2017-12-24T07:43:53.588Z,13.40
2017-12-24T07:44:53.500Z,14.00
2017-12-24T07:46:46.762Z,14.00
2017-12-24T07:47:46.695Z,13.40
2017-12-24T07:49:39.986Z,14.20
2017-12-24T07:50:39.899Z,13.70
2017-12-24T07:52:33.178Z,13.60
2017-12-24T07:53:33.091Z,13.40
2017-12-24T07:55:26.380Z,13.20
2017-12-24T07:56:26.310Z,13.90
2017-12-24T07:58:19.589Z,13.00
2017-12-24T07:59:19.500Z,12.20
2017-12-24T08:01:12.766Z,13.70
2017-12-24T08:02:12.698Z,13.60
2017-12-24T08:04:06.087Z,13.10
2017-12-24T08:05:05.892Z,13.70
2017-12-24T08:06:59.157Z,13.90
2017-12-24T08:07:59.088Z,13.10
2017-12-24T08:09:52.398Z,13.10
2017-12-24T08:10:52.311Z,13.80
2017-12-24T08:12:45.588Z,12.50
2017-12-24T08:13:45.504Z,12.70
2017-12-24T08:15:38.765Z,12.30
2017-12-24T08:16:38.696Z,12.50
2017-12-24T08:18:32.980Z,11.70
2017-12-24T08:19:32.895Z,12.20
2017-12-24T08:21:26.158Z,12.20
2017-12-24T08:22:26.088Z,12.40
2017-12-24T08:24:19.476Z,11.90
2017-12-24T08:25:19.282Z,11.50
2017-12-24T08:27:12.543Z,11.50
2017-12-24T08:28:12.477Z,11.50
2017-12-24T08:30:05.760Z,10.90
2017-12-24T08:31:05.691Z,11.30
2017-12-24T08:32:58.944Z,11.40
2017-12-24T08:33:58.864Z,10.50
2017-12-24T08:35:52.123Z,11.10
2017-12-24T08:36:52.056Z,10.80
2017-12-24T08:38:45.334Z,10.80
2017-12-24T08:39:45.250Z,11.00
2017-12-24T08:41:38.515Z,10.50
2017-12-24T08:42:38.446Z,10.30
2017-12-24T08:44:31.727Z,10.60
2017-12-24T08:45:31.635Z,10.70
2017-12-24T08:47:24.892Z,10.00
2017-12-24T08:48:24.830Z,10.30
2017-12-24T08:50:18.222Z,10.00
2017-12-24T08:51:18.025Z,10.20
2017-12-24T08:53:11.413Z,9.10
2017-12-24T08:54:11.216Z,8.90
2017-12-24T08:56:04.480Z,9.50
2017-12-24T08:57:04.413Z,10.30
2017-12-24T08:58:57.690Z,8.60
2017-12-24T08:59:57.605Z,9.50
2017-12-24T09:01:50.862Z,8.50
2017-12-24T09:02:50.801Z,9.30
2017-12-24T09:04:44.075Z,8.30
2017-12-24T09:05:43.989Z,8.60
2017-12-24T09:07:37.251Z,10.00
2017-12-24T09:08:37.185Z,9.90
2017-12-24T09:10:30.463Z,9.20
2017-12-24T09:11:30.379Z,9.40
2017-12-24T09:13:23.657Z,9.10
2017-12-24T09:14:23.569Z,9.60
2017-12-24T09:16:16.830Z,9.30
2017-12-24T09:17:16.762Z,9.80
2017-12-24T09:19:10.041Z,10.10
2017-12-24T09:20:09.955Z,10.10
2017-12-24T09:22:03.217Z,9.50
2017-12-24T09:23:03.148Z,9.40
2017-12-24T09:24:56.424Z,9.30
2017-12-24T09:25:56.342Z,9.40
2017-12-24T09:27:49.709Z,9.20
2017-12-24T09:28:49.533Z,9.40
2017-12-24T09:30:42.812Z,9.10
2017-12-24T09:31:42.727Z,9.00
2017-12-24T09:33:36.114Z,8.60
2017-12-24T09:34:35.948Z,9.20
2017-12-24T09:36:29.212Z,9.50
2017-12-24T09:37:29.141Z,9.10
2017-12-24T09:39:22.422Z,8.80
2017-12-24T09:40:22.336Z,8.00
2017-12-24T09:42:15.596Z,8.40
2017-12-24T09:43:15.530Z,8.60
2017-12-24T09:45:08.809Z,8.80
2017-12-24T09:46:08.725Z,8.20
2017-12-24T09:48:02.095Z,8.20
2017-12-24T09:49:01.918Z,8.50
2017-12-24T09:50:55.212Z,8.20
2017-12-24T09:51:55.113Z,8.30
2017-12-24T09:53:48.396Z,8.10
2017-12-24T09:54:48.309Z,8.80
2017-12-24T09:56:41.572Z,8.00
2017-12-24T09:57:41.502Z,8.00
2017-12-24T09:59:34.776Z,7.50
2017-12-24T10:00:34.687Z,8.00
2017-12-24T10:02:27.953Z,8.00
2017-12-24T10:03:27.882Z,7.70
2017-12-24T10:05:21.266Z,7.70
2017-12-24T10:06:21.074Z,7.70
2017-12-24T10:08:14.377Z,7.10
2017-12-24T10:09:14.308Z,7.10
2017-12-24T10:11:07.591Z,7.60
2017-12-24T10:12:07.504Z,7.10
2017-12-24T10:14:00.787Z,6.90
2017-12-24T10:15:00.702Z,7.20
2017-12-24T10:16:53.961Z,6.90
2017-12-24T10:17:53.890Z,6.80
2017-12-24T10:19:47.172Z,6.60
2017-12-24T10:20:47.087Z,7.00
2017-12-24T10:22:40.379Z,5.80
2017-12-24T10:23:40.309Z,6.50
2017-12-24T10:25:33.589Z,6.20
2017-12-24T10:26:33.503Z,6.00
2017-12-24T10:28:26.763Z,6.50
2017-12-24T10:29:26.700Z,6.00
2017-12-24T10:31:19.482Z,6.30
2017-12-24T10:32:19.395Z,6.80
2017-12-24T10:34:12.673Z,6.10
2017-12-24T10:35:12.588Z,5.90
2017-12-24T10:37:05.850Z,6.00
2017-12-24T10:38:05.781Z,6.20
2017-12-24T10:39:59.062Z,6.20
2017-12-24T10:40:58.976Z,6.50
2017-12-24T10:42:52.239Z,6.10
2017-12-24T10:43:52.177Z,5.50
2017-12-24T10:45:45.449Z,5.90
2017-12-24T10:46:45.362Z,6.20
2017-12-24T10:48:38.635Z,6.10
2017-12-24T10:49:38.565Z,5.70
2017-12-24T10:51:31.845Z,5.80
2017-12-24T10:52:31.759Z,6.10
2017-12-24T10:54:25.037Z,5.60
2017-12-24T10:55:24.947Z,6.00
2017-12-24T10:57:18.210Z,6.00
2017-12-24T10:58:18.142Z,5.70
2017-12-24T11:00:12.414Z,6.20
2017-12-24T11:01:12.325Z,5.80
2017-12-24T11:03:06.591Z,6.10
2017-12-24T11:04:06.521Z,5.60
2017-12-24T11:05:59.799Z,5.70
2017-12-24T11:06:59.711Z,6.40
2017-12-24T11:08:52.993Z,6.30
2017-12-24T11:09:52.904Z,6.50
2017-12-24T11:11:46.183Z,6.30
2017-12-24T11:12:46.096Z,6.50
2017-12-24T11:14:39.373Z,6.10
2017-12-24T11:15:39.288Z,6.40
2017-12-24T11:17:32.553Z,6.20
2017-12-24T11:18:32.481Z,6.90
2017-12-24T11:20:25.815Z,6.60
2017-12-24T11:21:25.724Z,7.10
2017-12-24T11:23:18.983Z,6.80
2017-12-24T11:24:18.916Z,6.80
2017-12-24T11:26:12.197Z,7.30
2017-12-24T11:27:12.109Z,7.10
2017-12-24T11:29:05.367Z,7.70
2017-12-24T11:30:05.305Z,7.30
2017-12-24T11:31:58.577Z,7.70
2017-12-24T11:32:58.489Z,7.40
2017-12-24T11:34:51.771Z,7.10
2017-12-24T11:35:51.689Z,6.60
2017-12-24T11:37:44.944Z,7.00
2017-12-24T11:38:44.880Z,7.10
2017-12-24T11:40:38.157Z,7.30
2017-12-24T11:41:38.071Z,7.40
2017-12-24T11:43:31.333Z,7.20
2017-12-24T11:44:31.263Z,7.10
2017-12-24T11:46:24.545Z,7.50
2017-12-24T11:47:24.458Z,6.70
2017-12-24T11:49:17.716Z,6.20
2017-12-24T11:50:17.646Z,6.70
2017-12-24T11:52:10.926Z,7.20
2017-12-24T11:53:10.836Z,6.60
2017-12-24T11:55:04.108Z,7.60
2017-12-24T11:56:04.018Z,7.60
2017-12-24T11:57:57.268Z,7.10
2017-12-24T11:58:57.200Z,7.10
2017-12-24T12:00:50.466Z,7.40
2017-12-24T12:01:50.377Z,6.80
2017-12-24T12:03:43.637Z,6.90
2017-12-24T12:04:43.569Z,6.30
2017-12-24T12:06:36.893Z,7.10
2017-12-24T12:07:36.762Z,7.00
2017-12-24T12:09:30.012Z,7.10
2017-12-24T12:10:29.943Z,6.90
2017-12-24T12:12:23.220Z,7.50
2017-12-24T12:13:23.132Z,8.00
2017-12-24T12:15:16.401Z,7.50
2017-12-24T12:16:16.318Z,7.50
2017-12-24T12:18:09.562Z,7.10
2017-12-24T12:19:09.492Z,7.10
2017-12-24T12:21:02.815Z,6.90
2017-12-24T12:22:02.672Z,7.00
2017-12-24T12:23:55.921Z,6.80
2017-12-24T12:24:55.851Z,6.20
2017-12-24T12:26:50.121Z,6.80
2017-12-24T12:27:50.032Z,6.90
2017-12-24T12:29:43.282Z,6.60
2017-12-24T12:30:43.213Z,6.70
2017-12-24T12:32:36.598Z,7.50
2017-12-24T12:33:36.395Z,7.40
2017-12-24T12:35:29.666Z,7.60
2017-12-24T12:36:29.575Z,7.40
2017-12-24T12:38:22.943Z,7.00
2017-12-24T12:39:22.768Z,7.40
2017-12-24T12:41:16.045Z,6.60
2017-12-24T12:42:15.956Z,6.70
2017-12-24T12:44:09.204Z,8.30
2017-12-24T12:45:09.135Z,7.40
2017-12-24T12:47:02.524Z,7.60
2017-12-24T12:48:02.328Z,6.90
2017-12-24T12:49:55.694Z,6.50
2017-12-24T12:50:55.510Z,6.90
2017-12-24T12:52:48.784Z,7.90
2017-12-24T12:53:48.693Z,7.80
2017-12-24T12:55:41.970Z,7.70
2017-12-24T12:56:41.885Z,7.60
2017-12-24T12:58:35.154Z,7.70
2017-12-24T12:59:35.086Z,7.60
2017-12-24T13:01:28.406Z,8.10
2017-12-24T13:02:28.312Z,8.20
2017-12-24T13:04:21.559Z,8.20
2017-12-24T13:05:21.488Z,8.00
2017-12-24T13:07:14.761Z,8.40
2017-12-24T13:08:14.670Z,9.00
2017-12-24T13:10:08.070Z,7.70
2017-12-24T13:11:07.861Z,7.80
2017-12-24T13:13:01.123Z,7.80
2017-12-24T13:14:01.031Z,8.10
2017-12-24T13:15:54.394Z,8.60
2017-12-24T13:16:54.313Z,9.40
2017-12-24T13:18:47.558Z,8.20
2017-12-24T13:19:47.489Z,8.70
2017-12-24T13:21:40.757Z,9.40
2017-12-24T13:22:40.669Z,9.40
2017-12-24T13:24:33.922Z,9.40
2017-12-24T13:25:33.914Z,9.50
2017-12-24T13:27:27.249Z,10.20
2017-12-24T13:28:27.041Z,10.60
2017-12-24T13:30:20.407Z,10.10
2017-12-24T13:31:20.309Z,10.40
2017-12-24T13:33:13.582Z,11.30
2017-12-24T13:34:13.492Z,11.40
2017-12-24T13:36:06.764Z,12.80
2017-12-24T13:37:06.672Z,13.40
2017-12-24T13:38:59.926Z,13.50
2017-12-24T13:39:59.855Z,13.00
2017-12-24T13:41:53.120Z,13.80
2017-12-24T13:42:53.032Z,14.90
2017-12-24T13:44:46.380Z,13.50
2017-12-24T13:45:46.310Z,13.80
2017-12-24T13:47:39.582Z,14.20
2017-12-24T13:48:39.494Z,15.00
2017-12-24T13:50:32.863Z,14.60
2017-12-24T13:51:32.676Z,14.40
2017-12-24T13:53:25.942Z,15.30
2017-12-24T13:54:25.854Z,15.50
2017-12-24T13:56:19.122Z,15.40
2017-12-24T13:57:19.038Z,15.00
2017-12-24T13:59:12.407Z,16.40
2017-12-24T14:00:12.315Z,14.60
2017-12-24T14:02:05.583Z,17.30
2017-12-24T14:03:05.494Z,17.20
2017-12-24T14:04:58.751Z,16.70
2017-12-24T14:05:58.675Z,17.30
2017-12-24T14:07:52.063Z,16.10
2017-12-24T14:08:51.856Z,15.60
2017-12-24T14:10:45.241Z,15.90
2017-12-24T14:11:45.038Z,17.20
2017-12-24T14:13:38.400Z,16.40
2017-12-24T14:14:38.309Z,16.10
2017-12-24T14:16:31.595Z,16.50
2017-12-24T14:17:31.487Z,16.30
2017-12-24T14:19:24.861Z,15.80
2017-12-24T14:20:24.676Z,15.90
2017-12-24T14:22:17.948Z,15.50
2017-12-24T14:23:17.863Z,15.30
2017-12-24T14:25:11.113Z,15.40
2017-12-24T14:26:11.045Z,15.80
2017-12-24T14:28:04.401Z,15.00
2017-12-24T14:29:04.312Z,14.70
2017-12-24T14:30:57.719Z,15.20
2017-12-24T14:31:57.497Z,15.40
2017-12-24T14:33:50.742Z,14.90
2017-12-24T14:34:50.674Z,15.40
2017-12-24T14:36:43.942Z,14.90
2017-12-24T14:37:43.853Z,14.90
2017-12-24T14:39:37.108Z,14.50
2017-12-24T14:40:37.040Z,14.20
2017-12-24T14:42:30.927Z,13.70
2017-12-24T14:43:30.311Z,14.40
2017-12-24T14:45:23.680Z,13.40
2017-12-24T14:46:23.491Z,13.40
2017-12-24T14:48:17.876Z,14.10
2017-12-24T14:49:17.673Z,14.40
2017-12-24T14:51:10.952Z,13.80
2017-12-24T14:52:10.866Z,14.50
2017-12-24T14:54:04.115Z,14.50
2017-12-24T14:55:04.046Z,13.70
2017-12-24T14:56:57.315Z,13.80
2017-12-24T14:57:57.240Z,13.60
2017-12-24T14:59:50.480Z,14.40
2017-12-24T15:00:50.409Z,13.80
2017-12-24T15:02:43.685Z,13.80
2017-12-24T15:03:43.593Z,14.30
2017-12-24T15:05:36.964Z,13.80
2017-12-24T15:06:36.775Z,14.30
2017-12-24T15:08:31.044Z,14.30
2017-12-24T15:09:30.955Z,14.90
2017-12-24T15:11:24.226Z,14.20
2017-12-24T15:12:24.136Z,14.50
2017-12-24T15:14:17.397Z,14.60
2017-12-24T15:15:17.329Z,14.40
2017-12-24T15:17:10.600Z,13.90
2017-12-24T15:18:10.511Z,14.20
2017-12-24T15:20:03.765Z,15.20
2017-12-24T15:21:03.693Z,14.80
2017-12-24T15:22:56.974Z,14.00
2017-12-24T15:23:56.887Z,13.70
2017-12-24T15:25:50.144Z,14.20
2017-12-24T15:26:50.078Z,14.50
2017-12-24T15:28:43.357Z,13.40
2017-12-24T15:29:43.271Z,14.60
2017-12-24T15:31:36.559Z,14.30
2017-12-24T15:32:36.464Z,14.30
2017-12-24T15:34:29.724Z,14.50
2017-12-24T15:35:29.657Z,13.70
2017-12-24T15:37:22.926Z,13.90
2017-12-24T15:38:22.839Z,14.70
2017-12-24T15:40:16.101Z,13.70
2017-12-24T15:41:16.037Z,13.30
2017-12-24T15:43:09.310Z,14.50
2017-12-24T15:44:09.223Z,14.50
2017-12-24T15:46:02.539Z,14.10
2017-12-24T15:47:02.416Z,14.50
2017-12-24T15:48:55.817Z,14.50
2017-12-24T15:49:55.610Z,14.20
2017-12-24T15:51:48.887Z,14.00
2017-12-24T15:52:48.801Z,13.50
2017-12-24T15:54:42.113Z,14.10
2017-12-24T15:55:41.997Z,14.00
2017-12-24T15:57:35.286Z,14.10
2017-12-24T15:58:35.198Z,13.40
2017-12-24T16:00:28.564Z,13.00
2017-12-24T16:01:28.426Z,13.90
2017-12-24T16:03:21.660Z,13.50
2017-12-24T16:04:21.576Z,12.60
2017-12-24T16:06:14.825Z,13.10
2017-12-24T16:07:14.755Z,13.90
2017-12-24T16:09:08.143Z,12.00
2017-12-24T16:10:07.938Z,13.00
2017-12-24T16:12:01.326Z,13.60
2017-12-24T16:13:01.130Z,13.80
2017-12-24T16:14:54.392Z,13.50
2017-12-24T16:15:54.325Z,12.70
2017-12-24T16:17:47.603Z,12.70
2017-12-24T16:18:47.518Z,12.50
2017-12-24T16:20:40.779Z,12.50
2017-12-24T16:21:40.708Z,12.90
2017-12-24T16:23:33.990Z,12.20
2017-12-24T16:24:33.901Z,12.00
2017-12-24T16:26:27.165Z,13.20
2017-12-24T16:27:27.094Z,12.30
2017-12-24T16:29:20.362Z,11.90
2017-12-24T16:30:20.279Z,13.10
2017-12-24T16:32:13.557Z,12.20
2017-12-24T16:33:13.472Z,12.20
2017-12-24T16:35:06.843Z,12.20
2017-12-24T16:36:06.663Z,11.60
2017-12-24T16:37:59.961Z,12.90
2017-12-24T16:38:59.868Z,12.40
2017-12-24T16:40:53.118Z,11.90
2017-12-24T16:41:53.049Z,11.90
2017-12-24T16:43:46.403Z,12.00
2017-12-24T16:44:46.314Z,12.20
2017-12-24T16:46:39.566Z,11.10
2017-12-24T16:47:39.495Z,11.30
2017-12-24T16:49:32.885Z,11.90
2017-12-24T16:50:32.676Z,12.00
2017-12-24T16:52:25.962Z,11.50
2017-12-24T16:53:25.874Z,11.80
2017-12-24T16:55:20.138Z,11.60
2017-12-24T16:56:20.067Z,11.30
2017-12-24T16:58:13.347Z,12.50
2017-12-24T16:59:13.267Z,11.50
2017-12-24T17:01:07.369Z,11.30
2017-12-24T17:02:07.300Z,11.90
2017-12-24T17:04:00.570Z,11.40
2017-12-24T17:05:00.483Z,11.70
2017-12-24T17:06:53.735Z,10.70
2017-12-24T17:07:53.664Z,10.70
2017-12-24T17:09:46.948Z,12.00
2017-12-24T17:10:46.864Z,11.20
2017-12-24T17:12:40.141Z,10.50
2017-12-24T17:13:40.054Z,11.50
2017-12-24T17:15:33.314Z,11.00
2017-12-24T17:16:33.245Z,10.80
2017-12-24T17:18:26.636Z,10.90
2017-12-24T17:19:26.439Z,10.80
2017-12-24T17:21:19.698Z,10.70
2017-12-24T17:22:19.633Z,11.10
2017-12-24T17:24:13.020Z,10.70
2017-12-24T17:25:12.825Z,10.00
2017-12-24T17:27:06.086Z,11.50
2017-12-24T17:28:06.017Z,11.40
2017-12-24T17:29:59.407Z,10.80
2017-12-24T17:30:59.208Z,10.90
2017-12-24T17:32:52.482Z,10.80
2017-12-24T17:33:52.396Z,11.20
2017-12-24T17:35:45.656Z,10.60
2017-12-24T17:36:45.588Z,11.40
2017-12-24T17:38:38.868Z,10.50
2017-12-24T17:39:38.781Z,10.90
2017-12-24T17:41:32.043Z,11.30
2017-12-24T17:42:31.974Z,11.50
2017-12-24T17:44:25.259Z,11.70
2017-12-24T17:45:25.167Z,11.40
2017-12-24T17:47:19.427Z,11.70
2017-12-24T17:48:19.360Z,12.00
2017-12-24T17:50:12.631Z,11.80
2017-12-24T17:51:12.543Z,11.70
2017-12-24T17:53:05.824Z,11.90
2017-12-24T17:54:05.738Z,12.20
2017-12-24T17:55:58.998Z,11.30
2017-12-24T17:56:58.934Z,11.30
2017-12-24T17:58:52.214Z,12.20
2017-12-24T17:59:52.136Z,12.50
2017-12-24T18:01:45.385Z,11.80
2017-12-24T18:02:45.319Z,12.40
2017-12-24T18:04:38.596Z,11.70
2017-12-24T18:05:38.510Z,11.70
2017-12-24T18:07:31.776Z,12.00
2017-12-24T18:08:31.707Z,11.80
2017-12-24T18:10:24.986Z,12.10
2017-12-24T18:11:24.899Z,12.10
2017-12-24T18:13:18.179Z,12.50
2017-12-24T18:14:18.091Z,12.60
2017-12-24T18:16:11.459Z,12.60
2017-12-24T18:17:11.283Z,11.70
2017-12-24T18:19:04.563Z,12.40
2017-12-24T18:20:04.479Z,11.90
2017-12-24T18:21:57.742Z,12.40
2017-12-24T18:22:57.668Z,12.10
2017-12-24T18:24:50.949Z,12.70
2017-12-24T18:25:50.865Z,11.50
2017-12-24T18:27:44.115Z,11.90
2017-12-24T18:28:44.046Z,12.40
2017-12-24T18:30:37.329Z,12.20
2017-12-24T18:31:37.238Z,11.70
2017-12-24T18:33:30.530Z,12.50
2017-12-24T18:34:30.431Z,11.80
2017-12-24T18:36:23.694Z,11.50
2017-12-24T18:37:23.627Z,11.20
2017-12-24T18:39:17.908Z,10.50
2017-12-24T18:40:17.807Z,10.90
2017-12-24T18:42:11.062Z,10.70
2017-12-24T18:43:10.992Z,11.40